Munising, Michigan
Current Conditions -  °F | °C
As of 3:17 AM on Tuesday 21 Oct 2014 (Local Time) from KSAW Reporting Station
Light Rain Light Rain  
Wind Chill:   Ceiling: 600
Heat Index:   Visibility: 2mi
Dew Point:   Wind: 12mph
Humidity: 95%   Direction: 360°N
Pressure: 30.08"   Gusts: NA
Location:  46.41°N, 86.65°W
Report Text: KSAW 210717Z AUTO 36010KT 2SM -RA OVC006 04/03 A3008 RMK AO2 T00410033
Loading
Personal Weather Stations






























Interactive Weather Map
Tropical Storm Tracking
New forecast layout! Learn more

10-Day Weather Forecast

Advertisements
Track Severe Weather on mobile